createdAt,value
2023-09-25T00:01:16.107Z,10.89
2023-09-25T00:04:08.323Z,10.83
2023-09-25T00:07:00.055Z,10.81
2023-09-25T00:09:45.178Z,10.82
2023-09-25T00:12:37.115Z,10.91
2023-09-25T00:15:21.954Z,10.92
2023-09-25T00:18:14.103Z,11.02
2023-09-25T00:20:59.364Z,11.08
2023-09-25T00:23:51.065Z,11.09
2023-09-25T00:26:36.081Z,11.12
2023-09-25T00:29:27.069Z,10.96
2023-09-25T00:32:11.876Z,11.01
2023-09-25T00:35:03.075Z,10.99
2023-09-25T00:37:48.796Z,10.94
2023-09-25T00:40:41.087Z,10.88
2023-09-25T00:43:32.077Z,10.87
2023-09-25T00:46:17.424Z,10.85
2023-09-25T00:49:09.068Z,10.82
2023-09-25T00:51:55.554Z,10.75
2023-09-25T00:54:47.085Z,10.72
2023-09-25T00:57:35.462Z,10.77
2023-09-25T01:00:27.123Z,10.75
2023-09-25T01:03:27.124Z,10.72
2023-09-25T01:06:12.703Z,10.64
2023-09-25T01:09:04.219Z,10.59
2023-09-25T01:11:49.490Z,10.61
2023-09-25T01:14:41.077Z,10.69
2023-09-25T01:17:26.318Z,10.73
2023-09-25T01:20:21.099Z,10.72
2023-09-25T01:23:06.431Z,10.72
2023-09-25T01:25:58.096Z,10.65
2023-09-25T01:28:50.190Z,10.58
2023-09-25T01:31:35.534Z,10.48
2023-09-25T01:34:27.098Z,10.48
2023-09-25T01:37:19.078Z,10.45
2023-09-25T01:40:13.084Z,10.37
2023-09-25T01:43:05.071Z,10.33
2023-09-25T01:45:57.136Z,10.37
2023-09-25T01:48:42.336Z,10.32
2023-09-25T01:51:34.134Z,10.28
2023-09-25T01:54:26.152Z,10.28
2023-09-25T01:57:18.088Z,10.28
2023-09-25T02:00:15.126Z,10.28
2023-09-25T02:03:07.442Z,10.23
2023-09-25T02:06:03.093Z,10.18
2023-09-25T02:08:48.613Z,10.25
2023-09-25T02:11:40.100Z,10.28
2023-09-25T02:14:32.090Z,10.28
2023-09-25T02:17:17.413Z,10.32
2023-09-25T02:20:27.109Z,10.39
2023-09-25T02:23:19.087Z,10.39
2023-09-25T02:26:11.093Z,10.41
2023-09-25T02:28:56.088Z,10.42
2023-09-25T02:31:47.132Z,10.39
2023-09-25T02:34:32.268Z,10.33
2023-09-25T02:37:25.100Z,10.26
2023-09-25T02:40:21.142Z,10.15
2023-09-25T02:43:06.498Z,9.97
2023-09-25T02:45:59.170Z,9.89
2023-09-25T02:48:51.305Z,9.94
2023-09-25T02:51:36.705Z,10.02
2023-09-25T02:54:28.151Z,10.03
2023-09-25T02:57:20.142Z,10.00
2023-09-25T03:00:19.112Z,10.02
2023-09-25T03:03:11.520Z,9.99
2023-09-25T03:06:03.113Z,10.01
2023-09-25T03:08:48.558Z,10.09
2023-09-25T03:11:40.110Z,9.95
2023-09-25T03:14:25.237Z,9.86
2023-09-25T03:17:17.122Z,9.90
2023-09-25T03:20:08.702Z,9.86
2023-09-25T03:23:02.178Z,9.80
2023-09-25T03:25:54.115Z,9.79
2023-09-25T03:28:39.005Z,9.74
2023-09-25T03:31:30.180Z,9.66
2023-09-25T03:34:21.109Z,9.79
2023-09-25T03:37:05.979Z,9.69
2023-09-25T03:39:57.101Z,9.68
2023-09-25T03:42:42.839Z,9.70
2023-09-25T03:45:34.152Z,9.64
2023-09-25T03:48:19.346Z,9.65
2023-09-25T03:51:11.143Z,9.70
2023-09-25T03:53:56.056Z,9.80
2023-09-25T03:56:48.125Z,9.83
2023-09-25T03:59:40.114Z,9.78
2023-09-25T04:02:31.155Z,9.75
2023-09-25T04:05:29.122Z,9.68
2023-09-25T04:08:21.146Z,9.63
2023-09-25T04:11:06.457Z,9.64
2023-09-25T04:13:58.115Z,9.56
2023-09-25T04:16:43.257Z,9.54
2023-09-25T04:19:35.214Z,9.52
2023-09-25T04:22:21.210Z,9.48
2023-09-25T04:25:17.126Z,9.58
2023-09-25T04:28:09.146Z,9.57
2023-09-25T04:30:54.638Z,9.59
2023-09-25T04:33:49.168Z,9.49
2023-09-25T04:36:34.969Z,9.56
2023-09-25T04:39:28.211Z,9.49
2023-09-25T04:42:13.241Z,9.49
2023-09-25T04:45:05.141Z,9.51
2023-09-25T04:47:54.788Z,9.48
2023-09-25T04:50:48.144Z,9.46
2023-09-25T04:53:33.376Z,9.45
2023-09-25T04:56:29.136Z,9.52
2023-09-25T04:59:21.122Z,9.54
2023-09-25T05:02:27.170Z,9.60
2023-09-25T05:05:20.133Z,9.61
2023-09-25T05:08:05.517Z,9.55
2023-09-25T05:10:57.125Z,9.54
2023-09-25T05:13:44.412Z,9.56
2023-09-25T05:16:36.172Z,9.58
2023-09-25T05:19:21.064Z,9.50
2023-09-25T05:22:13.128Z,9.55
2023-09-25T05:24:58.043Z,9.61
2023-09-25T05:27:52.186Z,9.46
2023-09-25T05:30:37.092Z,9.39
2023-09-25T05:33:29.175Z,9.40
2023-09-25T05:36:20.190Z,9.48
2023-09-25T05:39:07.047Z,9.61
2023-09-25T05:41:59.154Z,9.60
2023-09-25T05:44:44.083Z,9.61
2023-09-25T05:47:36.162Z,9.61
2023-09-25T05:50:27.151Z,9.61
2023-09-25T05:53:19.154Z,9.66
2023-09-25T05:56:04.367Z,9.76
2023-09-25T05:58:57.144Z,9.93
2023-09-25T06:01:50.191Z,10.05
2023-09-25T06:04:41.533Z,10.11
2023-09-25T06:07:33.150Z,10.21
2023-09-25T06:10:25.135Z,10.27
2023-09-25T06:13:10.927Z,10.38
2023-09-25T06:16:02.148Z,10.38
2023-09-25T06:18:48.829Z,10.40
2023-09-25T06:21:41.179Z,10.50
2023-09-25T06:24:26.511Z,10.57
2023-09-25T06:27:18.180Z,10.65
2023-09-25T06:30:10.137Z,10.61
2023-09-25T06:33:02.248Z,10.77
2023-09-25T06:35:46.936Z,10.87
2023-09-25T06:38:39.158Z,10.89
2023-09-25T06:41:24.281Z,10.96
2023-09-25T06:44:16.146Z,10.98
2023-09-25T06:47:01.493Z,11.12
2023-09-25T06:49:53.142Z,11.21
2023-09-25T06:52:38.181Z,11.23
2023-09-25T06:55:30.157Z,11.33
2023-09-25T06:58:15.193Z,11.47
2023-09-25T07:01:07.217Z,11.71
2023-09-25T07:03:58.386Z,11.89
2023-09-25T07:06:50.231Z,11.99
2023-09-25T07:09:34.987Z,12.15
2023-09-25T07:12:27.643Z,12.24
2023-09-25T07:15:13.109Z,12.27
2023-09-25T07:18:06.183Z,12.32
2023-09-25T07:20:55.454Z,12.57
2023-09-25T07:23:47.183Z,12.68
2023-09-25T07:26:38.169Z,12.67
2023-09-25T07:29:38.728Z,12.91
2023-09-25T07:32:32.251Z,13.05
2023-09-25T07:35:17.369Z,13.26
2023-09-25T07:38:10.162Z,13.30
2023-09-25T07:41:03.211Z,13.42
2023-09-25T07:43:58.364Z,13.59
2023-09-25T07:46:51.278Z,13.71
2023-09-25T07:49:48.194Z,13.91
2023-09-25T07:52:40.189Z,14.06
2023-09-25T07:55:25.462Z,14.01
2023-09-25T07:58:19.181Z,14.25
2023-09-25T08:01:08.909Z,14.45
2023-09-25T08:04:07.275Z,14.75
2023-09-25T08:06:52.311Z,15.00
2023-09-25T08:09:44.212Z,14.97
2023-09-25T08:12:29.539Z,15.01
2023-09-25T08:15:21.206Z,14.99
2023-09-25T08:18:06.416Z,15.30
2023-09-25T08:20:58.171Z,15.28
2023-09-25T08:23:43.360Z,15.48
2023-09-25T08:26:35.173Z,15.59
2023-09-25T08:29:20.313Z,15.89
2023-09-25T08:32:12.278Z,15.87
2023-09-25T08:34:57.159Z,16.08
2023-09-25T08:37:49.314Z,16.27
2023-09-25T08:40:37.437Z,16.21
2023-09-25T08:43:29.254Z,16.30
2023-09-25T08:46:21.237Z,16.40
2023-09-25T08:49:07.197Z,16.76
2023-09-25T08:52:00.321Z,16.72
2023-09-25T08:54:47.560Z,17.24
2023-09-25T08:57:40.280Z,18.30
2023-09-25T09:00:25.679Z,19.65
2023-09-25T09:03:24.326Z,20.05
2023-09-25T09:06:16.682Z,20.52
2023-09-25T09:09:08.225Z,21.19
2023-09-25T09:11:53.819Z,20.30
2023-09-25T09:14:47.226Z,20.83
2023-09-25T09:17:32.220Z,21.36
2023-09-25T09:20:24.217Z,21.58
2023-09-25T09:26:03.218Z,22.85
2023-09-25T09:28:48.935Z,21.35
2023-09-25T09:31:42.214Z,22.15
2023-09-25T09:34:27.698Z,22.59
2023-09-25T09:37:22.300Z,22.41
2023-09-25T09:40:12.294Z,23.08
2023-09-25T09:43:05.213Z,22.34
2023-09-25T09:45:57.288Z,22.90
2023-09-25T09:48:47.224Z,22.86
2023-09-25T09:51:40.271Z,23.31
2023-09-25T09:54:34.270Z,21.58
2023-09-25T09:57:20.290Z,21.49
2023-09-25T10:00:14.247Z,22.61
2023-09-25T10:03:13.353Z,21.64
2023-09-25T10:05:59.683Z,21.93
2023-09-25T10:09:08.236Z,21.55
2023-09-25T10:11:55.823Z,21.61
2023-09-25T10:14:51.243Z,21.91
2023-09-25T10:17:43.003Z,21.96
2023-09-25T10:20:46.289Z,22.77
2023-09-25T10:23:39.240Z,22.22
2023-09-25T10:26:26.282Z,23.11
2023-09-25T10:29:23.237Z,23.34
2023-09-25T10:32:12.751Z,23.42
2023-09-25T10:35:04.281Z,23.02
2023-09-25T10:38:30.137Z,24.31
2023-09-25T10:41:23.270Z,23.78
2023-09-25T10:44:10.913Z,22.48
2023-09-25T10:47:03.247Z,23.50
2023-09-25T10:49:56.234Z,24.01
2023-09-25T10:52:41.062Z,24.52
2023-09-25T10:55:32.253Z,24.07
2023-09-25T10:58:25.264Z,22.72
2023-09-25T11:01:17.346Z,23.61
2023-09-25T11:04:10.364Z,23.49
2023-09-25T11:07:02.310Z,23.34
2023-09-25T11:09:47.497Z,23.89
2023-09-25T11:12:39.280Z,23.38
2023-09-25T11:15:35.430Z,23.12
2023-09-25T11:18:27.368Z,22.92
2023-09-25T11:21:12.620Z,23.72
2023-09-25T11:24:04.373Z,22.78
2023-09-25T11:26:56.271Z,22.48
2023-09-25T11:29:48.253Z,22.05
2023-09-25T11:32:39.318Z,22.35
2023-09-25T11:35:33.263Z,22.09
2023-09-25T11:38:22.822Z,22.08
2023-09-25T11:41:15.288Z,21.90
2023-09-25T11:44:02.833Z,21.76
2023-09-25T11:46:54.427Z,21.59
2023-09-25T11:49:39.771Z,21.47
2023-09-25T11:52:31.299Z,21.61
2023-09-25T11:55:16.640Z,21.52
2023-09-25T11:58:09.298Z,21.44
2023-09-25T12:00:54.294Z,21.34
2023-09-25T12:03:52.544Z,21.46
2023-09-25T12:06:45.337Z,21.47
2023-09-25T12:09:37.286Z,21.14
2023-09-25T12:12:22.662Z,21.23
2023-09-25T12:15:16.280Z,21.40
2023-09-25T12:18:01.512Z,21.60
2023-09-25T12:20:53.301Z,21.29
2023-09-25T12:23:38.179Z,21.10
2023-09-25T12:26:29.279Z,21.05
2023-09-25T12:29:14.380Z,21.05
2023-09-25T12:32:06.550Z,21.30
2023-09-25T12:34:51.774Z,21.43
2023-09-25T12:37:43.294Z,21.34
2023-09-25T12:40:30.966Z,21.65
2023-09-25T12:43:22.359Z,21.59
2023-09-25T12:46:07.865Z,21.74
2023-09-25T12:48:59.321Z,21.70
2023-09-25T12:51:44.534Z,21.60
2023-09-25T12:54:36.308Z,21.34
2023-09-25T12:57:23.358Z,21.51
2023-09-25T13:00:16.314Z,21.28
2023-09-25T13:03:08.411Z,21.45
2023-09-25T13:05:59.529Z,21.36
2023-09-25T13:08:51.314Z,21.41
2023-09-25T13:11:44.301Z,21.17
2023-09-25T13:14:29.230Z,21.51
2023-09-25T13:17:21.310Z,21.83
2023-09-25T13:20:09.047Z,21.63
2023-09-25T13:23:01.335Z,21.47
2023-09-25T13:25:46.527Z,21.44
2023-09-25T13:28:38.331Z,21.60
2023-09-25T13:31:24.581Z,21.33
2023-09-25T13:34:16.307Z,21.29
2023-09-25T13:37:01.752Z,21.32
2023-09-25T13:39:53.429Z,21.43
2023-09-25T13:42:38.648Z,21.03
2023-09-25T13:45:30.352Z,21.10
2023-09-25T13:48:15.387Z,21.09
2023-09-25T13:51:07.325Z,21.14
2023-09-25T13:54:00.309Z,21.20
2023-09-25T13:56:45.543Z,21.23
2023-09-25T13:59:37.323Z,21.41
2023-09-25T14:02:28.377Z,21.38
2023-09-25T14:05:27.333Z,21.54
2023-09-25T14:08:12.290Z,21.72
2023-09-25T14:11:12.322Z,21.80
2023-09-25T14:13:57.321Z,21.63
2023-09-25T14:16:49.377Z,21.86
2023-09-25T14:19:40.322Z,21.54
2023-09-25T14:22:32.552Z,21.68
2023-09-25T14:25:17.754Z,21.74
2023-09-25T14:28:09.384Z,21.61
2023-09-25T14:31:01.371Z,21.52
2023-09-25T14:33:53.616Z,21.30
2023-09-25T14:36:45.388Z,21.52
2023-09-25T14:39:32.120Z,21.47
2023-09-25T14:42:24.351Z,21.22
2023-09-25T14:45:09.937Z,21.00
2023-09-25T14:48:01.426Z,21.05
2023-09-25T14:50:53.354Z,21.02
2023-09-25T14:53:38.591Z,21.02
2023-09-25T14:56:30.339Z,21.26
2023-09-25T14:59:22.362Z,21.45
2023-09-25T15:02:14.359Z,21.47
2023-09-25T15:05:13.400Z,21.46
2023-09-25T15:08:05.350Z,21.58
2023-09-25T15:10:51.733Z,21.48
2023-09-25T15:13:43.386Z,21.33
2023-09-25T15:16:28.469Z,21.26
2023-09-25T15:19:20.359Z,21.15
2023-09-25T15:22:06.198Z,21.17
2023-09-25T15:24:58.394Z,21.21
2023-09-25T15:27:50.400Z,21.23
2023-09-25T15:30:36.676Z,21.09
2023-09-25T15:33:28.405Z,21.12
2023-09-25T15:36:13.663Z,21.14
2023-09-25T15:39:05.404Z,21.14
2023-09-25T15:41:57.364Z,21.17
2023-09-25T15:44:42.566Z,21.18
2023-09-25T15:47:34.375Z,21.13
2023-09-25T15:50:26.374Z,21.15
2023-09-25T15:53:11.686Z,21.05
2023-09-25T15:56:05.375Z,21.14
2023-09-25T15:58:50.808Z,21.05
2023-09-25T16:01:42.396Z,21.02
2023-09-25T16:04:34.910Z,21.09
2023-09-25T16:07:26.377Z,21.08
2023-09-25T16:10:11.861Z,20.88
2023-09-25T16:13:03.415Z,20.87
2023-09-25T16:15:49.108Z,20.86
2023-09-25T16:18:40.415Z,20.85
2023-09-25T16:21:25.635Z,20.72
2023-09-25T16:24:17.409Z,20.66
2023-09-25T16:27:02.302Z,20.62
2023-09-25T16:29:54.422Z,20.54
2023-09-25T16:32:39.931Z,20.49
2023-09-25T16:35:31.387Z,20.45
2023-09-25T16:38:23.415Z,20.37
2023-09-25T16:41:15.380Z,20.13
2023-09-25T16:44:07.462Z,19.85
2023-09-25T16:46:52.561Z,20.01
2023-09-25T16:49:44.392Z,19.97
2023-09-25T16:52:36.389Z,20.04
2023-09-25T16:55:27.380Z,19.98
2023-09-25T16:58:19.397Z,19.89
2023-09-25T17:01:07.461Z,19.78
2023-09-25T17:03:59.492Z,19.60
2023-09-25T17:06:51.567Z,19.28
2023-09-25T17:09:43.449Z,19.11
2023-09-25T17:12:28.514Z,18.89
2023-09-25T17:15:20.397Z,18.67
2023-09-25T17:18:13.632Z,18.49
2023-09-25T17:21:05.406Z,18.40
2023-09-25T17:23:50.479Z,18.35
2023-09-25T17:26:42.414Z,18.20
2023-09-25T17:29:27.754Z,18.05
2023-09-25T17:32:19.549Z,17.87
2023-09-25T17:35:05.370Z,17.59
2023-09-25T17:37:59.416Z,17.41
2023-09-25T17:40:50.408Z,17.26
2023-09-25T17:43:42.474Z,17.10
2023-09-25T17:46:27.667Z,16.97
2023-09-25T17:49:19.435Z,16.91
2023-09-25T17:52:17.765Z,16.78
2023-09-25T17:55:15.547Z,16.68
2023-09-25T17:58:16.028Z,16.62
2023-09-25T18:01:04.819Z,16.58
2023-09-25T18:03:56.527Z,16.46
2023-09-25T18:06:42.293Z,16.40
2023-09-25T18:09:34.470Z,16.38
2023-09-25T18:12:26.500Z,16.25
2023-09-25T18:15:12.893Z,16.24
2023-09-25T18:18:04.479Z,16.24
2023-09-25T18:20:49.738Z,16.12
2023-09-25T18:23:41.422Z,16.08
2023-09-25T18:26:27.305Z,16.03
2023-09-25T18:29:19.445Z,15.94
2023-09-25T18:32:05.500Z,15.83
2023-09-25T18:34:57.429Z,15.79
2023-09-25T18:37:42.514Z,15.75
2023-09-25T18:40:36.384Z,15.80
2023-09-25T18:43:36.458Z,15.85
2023-09-25T18:46:34.538Z,15.89
2023-09-25T18:49:33.432Z,15.82
2023-09-25T18:52:25.452Z,15.76
2023-09-25T18:55:10.622Z,15.65
2023-09-25T18:58:02.544Z,15.62
2023-09-25T19:00:51.226Z,15.53
2023-09-25T19:03:49.550Z,15.46
2023-09-25T19:06:41.515Z,15.41
2023-09-25T19:09:34.492Z,15.37
2023-09-25T19:12:19.633Z,15.32
2023-09-25T19:15:11.446Z,15.26
2023-09-25T19:18:04.501Z,15.24
2023-09-25T19:20:56.509Z,15.16
2023-09-25T19:23:41.758Z,15.08
2023-09-25T19:26:33.448Z,15.03
2023-09-25T19:29:24.393Z,14.98
2023-09-25T19:32:09.558Z,14.93
2023-09-25T19:35:01.519Z,14.84
2023-09-25T19:37:47.941Z,14.78
2023-09-25T19:40:40.583Z,14.74
2023-09-25T19:43:25.340Z,14.67
2023-09-25T19:46:16.539Z,14.66
2023-09-25T19:49:01.754Z,14.60
2023-09-25T19:51:53.476Z,14.53
2023-09-25T19:54:46.463Z,14.46
2023-09-25T19:57:38.514Z,14.43
2023-09-25T20:00:23.733Z,14.41
2023-09-25T20:03:17.958Z,14.38
2023-09-25T20:06:09.740Z,14.32
2023-09-25T20:09:02.469Z,14.34
2023-09-25T20:11:54.483Z,14.28
2023-09-25T20:14:45.581Z,14.25
2023-09-25T20:17:30.492Z,14.22
2023-09-25T20:20:22.491Z,14.21
2023-09-25T20:23:07.848Z,14.19
2023-09-25T20:26:00.463Z,14.09
2023-09-25T20:28:45.748Z,14.07
2023-09-25T20:31:37.550Z,13.98
2023-09-25T20:34:29.487Z,13.95
2023-09-25T20:37:21.501Z,13.91
2023-09-25T20:40:07.348Z,13.89
2023-09-25T20:42:58.530Z,13.83
2023-09-25T20:45:50.529Z,13.87
2023-09-25T20:48:42.799Z,13.88
2023-09-25T20:51:28.238Z,13.83
2023-09-25T20:54:19.472Z,13.82
2023-09-25T20:57:04.818Z,13.74
2023-09-25T20:59:56.476Z,13.72
2023-09-25T21:02:42.195Z,13.73
2023-09-25T21:05:40.474Z,13.63
2023-09-25T21:08:26.718Z,13.58
2023-09-25T21:11:18.485Z,13.60
2023-09-25T21:14:10.476Z,13.60
2023-09-25T21:17:02.544Z,13.52
2023-09-25T21:19:53.470Z,13.52
2023-09-25T21:22:45.457Z,13.50
2023-09-25T21:25:36.479Z,13.48
2023-09-25T21:28:21.723Z,13.46
2023-09-25T21:31:13.627Z,13.44
2023-09-25T21:33:59.178Z,13.43
2023-09-25T21:36:50.518Z,13.40
2023-09-25T21:39:42.495Z,13.32
2023-09-25T21:42:27.455Z,13.23
2023-09-25T21:45:18.510Z,13.17
2023-09-25T21:48:04.091Z,13.20
2023-09-25T21:51:05.493Z,13.13
2023-09-25T21:53:50.746Z,13.10
2023-09-25T21:56:42.489Z,13.03
2023-09-25T21:59:27.582Z,13.03
2023-09-25T22:02:19.476Z,12.99
2023-09-25T22:05:17.506Z,12.92
2023-09-25T22:08:02.991Z,12.85
2023-09-25T22:10:54.535Z,12.79
2023-09-25T22:13:39.623Z,12.81
2023-09-25T22:16:31.630Z,12.74
2023-09-25T22:19:16.927Z,12.73
2023-09-25T22:22:08.570Z,12.71
2023-09-25T22:24:53.723Z,12.54
2023-09-25T22:27:45.507Z,12.56
2023-09-25T22:30:32.369Z,12.57
2023-09-25T22:33:24.487Z,12.61
2023-09-25T22:36:10.883Z,12.58
2023-09-25T22:39:02.532Z,12.57
2023-09-25T22:41:47.694Z,12.56
2023-09-25T22:44:40.515Z,12.47
2023-09-25T22:47:32.499Z,12.50
2023-09-25T22:50:17.657Z,12.46
2023-09-25T22:53:09.541Z,12.43
2023-09-25T22:56:00.510Z,12.36
2023-09-25T22:58:45.851Z,12.12
2023-09-25T23:01:37.600Z,12.13
2023-09-25T23:04:29.573Z,12.21
2023-09-25T23:07:22.488Z,12.23
2023-09-25T23:10:16.539Z,12.22
2023-09-25T23:13:08.587Z,12.11
2023-09-25T23:16:00.620Z,12.03
2023-09-25T23:18:45.416Z,12.06
2023-09-25T23:21:37.513Z,12.02
2023-09-25T23:24:29.508Z,12.07
2023-09-25T23:27:21.534Z,12.08
2023-09-25T23:30:07.622Z,12.05
2023-09-25T23:32:59.560Z,12.01
2023-09-25T23:35:51.525Z,11.96
2023-09-25T23:38:36.413Z,11.86
2023-09-25T23:41:28.524Z,11.86
2023-09-25T23:44:13.853Z,11.88
2023-09-25T23:47:05.617Z,11.91
2023-09-25T23:49:50.700Z,11.86
2023-09-25T23:52:43.525Z,11.75
2023-09-25T23:55:28.713Z,11.72
2023-09-25T23:58:20.564Z,11.65
